createdAt,value
2023-01-17T00:02:07.533Z,76.39
2023-01-17T00:04:52.995Z,76.36
2023-01-17T00:07:40.148Z,76.17
2023-01-17T00:10:11.559Z,76.30
2023-01-17T00:12:40.491Z,76.44
2023-01-17T00:15:09.560Z,77.10
2023-01-17T00:17:37.204Z,77.56
2023-01-17T00:20:22.886Z,77.09
2023-01-17T00:23:08.464Z,76.82
2023-01-17T00:25:57.932Z,77.15
2023-01-17T00:28:25.076Z,77.17
2023-01-17T00:30:51.651Z,77.40
2023-01-17T00:33:19.099Z,77.74
2023-01-17T00:35:46.688Z,77.85
2023-01-17T00:38:15.428Z,77.38
2023-01-17T00:40:44.533Z,77.50
2023-01-17T00:43:31.394Z,78.01
2023-01-17T00:46:16.936Z,77.62
2023-01-17T00:49:02.445Z,77.49
2023-01-17T00:51:48.695Z,76.62
2023-01-17T00:54:35.217Z,76.83
2023-01-17T00:57:22.757Z,77.61
2023-01-17T01:00:08.375Z,77.20
2023-01-17T01:02:54.803Z,77.05
2023-01-17T01:05:40.406Z,77.44
2023-01-17T01:08:35.319Z,76.58
2023-01-17T01:11:23.548Z,76.94
2023-01-17T01:14:10.105Z,77.03
2023-01-17T01:16:55.575Z,76.10
2023-01-17T01:19:40.798Z,76.84
2023-01-17T01:22:25.995Z,76.87
2023-01-17T01:25:12.094Z,76.99
2023-01-17T01:27:57.425Z,77.11
2023-01-17T01:30:44.177Z,77.24
2023-01-17T01:33:19.491Z,77.26
2023-01-17T01:35:49.304Z,76.80
2023-01-17T01:38:17.667Z,76.73
2023-01-17T01:40:50.259Z,77.04
2023-01-17T01:43:21.104Z,76.94
2023-01-17T01:45:55.120Z,77.10
2023-01-17T01:48:35.725Z,77.00
2023-01-17T01:51:07.155Z,76.91
2023-01-17T01:53:38.683Z,77.62
2023-01-17T01:56:10.503Z,77.68
2023-01-17T01:58:39.838Z,79.11
2023-01-17T02:01:10.310Z,77.92
2023-01-17T02:03:41.090Z,78.84
2023-01-17T02:06:20.846Z,78.80
2023-01-17T02:08:49.873Z,79.33
2023-01-17T02:11:17.535Z,79.12
2023-01-17T02:13:45.653Z,79.15
2023-01-17T02:16:26.896Z,78.06
2023-01-17T02:19:06.909Z,79.36
2023-01-17T02:21:39.132Z,79.12
2023-01-17T02:24:35.903Z,79.03
2023-01-17T02:27:15.496Z,79.71
2023-01-17T02:30:33.622Z,79.87
2023-01-17T02:33:09.915Z,79.76
2023-01-17T02:35:48.814Z,79.55
2023-01-17T02:38:31.208Z,78.81
2023-01-17T02:41:05.609Z,78.77
2023-01-17T02:43:34.409Z,79.46
2023-01-17T02:46:03.690Z,78.98
2023-01-17T02:48:34.479Z,79.22
2023-01-17T02:51:24.010Z,80.18
2023-01-17T02:54:05.384Z,79.09
2023-01-17T02:56:48.574Z,80.10
2023-01-17T02:59:29.318Z,79.87
2023-01-17T03:02:10.946Z,80.75
2023-01-17T03:04:45.730Z,79.93
2023-01-17T03:07:17.564Z,81.25
2023-01-17T03:09:48.846Z,80.57
2023-01-17T03:12:16.797Z,82.10
2023-01-17T03:14:44.753Z,81.43
2023-01-17T03:17:13.947Z,81.52
2023-01-17T03:19:42.031Z,81.92
2023-01-17T03:22:10.338Z,82.32
2023-01-17T03:24:38.451Z,82.02
2023-01-17T03:27:06.609Z,82.39
2023-01-17T03:29:34.264Z,82.55
2023-01-17T03:32:02.289Z,83.07
2023-01-17T03:34:31.250Z,82.63
2023-01-17T03:36:59.524Z,82.12
2023-01-17T03:39:27.105Z,81.34
2023-01-17T03:41:54.862Z,80.89
2023-01-17T03:44:22.568Z,80.78
2023-01-17T03:46:50.597Z,80.46
2023-01-17T03:49:18.386Z,80.68
2023-01-17T03:51:47.431Z,80.61
2023-01-17T03:54:15.042Z,80.04
2023-01-17T03:56:43.014Z,81.21
2023-01-17T03:59:13.087Z,80.40
2023-01-17T04:01:41.728Z,80.47
2023-01-17T04:04:09.429Z,81.14
2023-01-17T04:06:37.212Z,80.42
2023-01-17T04:09:06.493Z,81.44
2023-01-17T04:11:34.635Z,80.78
2023-01-17T04:14:02.314Z,81.22
2023-01-17T04:16:32.426Z,80.62
2023-01-17T04:19:00.113Z,80.02
2023-01-17T04:21:28.112Z,79.94
2023-01-17T04:23:55.716Z,80.17
2023-01-17T04:26:25.089Z,79.31
2023-01-17T04:28:52.670Z,79.65
2023-01-17T04:31:20.492Z,79.37
2023-01-17T04:33:48.907Z,79.21
2023-01-17T04:36:16.889Z,80.20
2023-01-17T04:38:44.932Z,80.10
2023-01-17T04:41:12.885Z,79.76
2023-01-17T04:43:41.838Z,79.99
2023-01-17T04:46:10.894Z,80.27
2023-01-17T04:48:38.572Z,81.00
2023-01-17T04:51:08.071Z,80.47
2023-01-17T04:53:35.666Z,81.41
2023-01-17T04:56:03.851Z,81.52
2023-01-17T04:58:33.336Z,81.29
2023-01-17T05:01:04.433Z,82.17
2023-01-17T05:03:32.607Z,81.38
2023-01-17T05:06:00.691Z,81.34
2023-01-17T05:08:29.331Z,80.82
2023-01-17T05:10:57.109Z,81.49
2023-01-17T05:13:24.863Z,80.73
2023-01-17T05:15:52.720Z,81.35
2023-01-17T05:18:22.049Z,80.49
2023-01-17T05:20:49.677Z,80.23
2023-01-17T05:23:17.757Z,80.37
2023-01-17T05:25:45.445Z,79.72
2023-01-17T05:28:14.342Z,80.23
2023-01-17T05:30:42.263Z,79.51
2023-01-17T05:33:10.803Z,79.64
2023-01-17T05:35:40.147Z,78.67
2023-01-17T05:38:07.871Z,78.53
2023-01-17T05:40:35.644Z,78.61
2023-01-17T05:43:04.504Z,78.90
2023-01-17T05:45:33.364Z,79.70
2023-01-17T05:48:01.697Z,79.93
2023-01-17T05:50:30.990Z,79.53
2023-01-17T05:53:02.474Z,79.71
2023-01-17T05:55:31.477Z,79.44
2023-01-17T05:58:00.492Z,79.99
2023-01-17T06:00:29.125Z,78.97
2023-01-17T06:02:58.004Z,79.52
2023-01-17T06:05:27.014Z,79.50
2023-01-17T06:07:56.664Z,79.57
2023-01-17T06:10:26.973Z,79.59
2023-01-17T06:13:02.042Z,79.86
2023-01-17T06:15:29.965Z,79.45
2023-01-17T06:17:57.720Z,79.42
2023-01-17T06:20:25.375Z,79.35
2023-01-17T06:22:53.030Z,79.87
2023-01-17T06:25:20.671Z,78.68
2023-01-17T06:27:50.367Z,79.45
2023-01-17T06:30:18.433Z,80.04
2023-01-17T06:32:48.697Z,80.32
2023-01-17T06:35:16.332Z,79.45
2023-01-17T06:37:43.959Z,80.18
2023-01-17T06:40:13.117Z,80.83
2023-01-17T06:42:40.748Z,80.21
2023-01-17T06:45:11.409Z,79.78
2023-01-17T06:47:39.452Z,80.02
2023-01-17T06:50:08.009Z,80.20
2023-01-17T06:52:35.616Z,80.38
2023-01-17T06:55:03.539Z,80.85
2023-01-17T06:57:31.139Z,81.39
2023-01-17T06:59:59.245Z,81.69
2023-01-17T07:02:28.284Z,81.59
2023-01-17T07:04:56.226Z,81.47
2023-01-17T07:07:24.805Z,81.29
2023-01-17T07:09:52.617Z,81.37
2023-01-17T07:12:20.581Z,80.85
2023-01-17T07:14:49.042Z,81.11
2023-01-17T07:17:16.657Z,80.73
2023-01-17T07:19:46.239Z,81.04
2023-01-17T07:22:13.912Z,81.42
2023-01-17T07:24:41.506Z,81.12
2023-01-17T07:27:09.320Z,80.53
2023-01-17T07:29:37.232Z,80.56
2023-01-17T07:32:04.839Z,80.85
2023-01-17T07:34:32.457Z,80.42
2023-01-17T07:37:01.881Z,80.18
2023-01-17T07:39:29.726Z,80.44
2023-01-17T07:41:57.321Z,80.29
2023-01-17T07:44:25.103Z,80.37
2023-01-17T07:46:52.764Z,80.52
2023-01-17T07:49:20.716Z,80.07
2023-01-17T07:51:48.750Z,79.83
2023-01-17T07:54:18.276Z,80.29
2023-01-17T07:56:47.163Z,79.67
2023-01-17T07:59:15.464Z,79.80
2023-01-17T08:01:43.156Z,78.78
2023-01-17T08:04:11.958Z,78.49
2023-01-17T08:06:43.152Z,78.32
2023-01-17T08:09:11.501Z,78.20
2023-01-17T08:11:40.526Z,77.54
2023-01-17T08:14:08.828Z,77.41
2023-01-17T08:16:37.554Z,77.53
2023-01-17T08:19:06.042Z,78.15
2023-01-17T08:21:33.647Z,77.60
2023-01-17T08:24:01.952Z,78.07
2023-01-17T08:26:29.566Z,78.57
2023-01-17T08:29:01.209Z,77.93
2023-01-17T08:31:30.187Z,78.65
2023-01-17T08:33:58.199Z,78.79
2023-01-17T08:36:28.845Z,78.13
2023-01-17T08:38:56.741Z,77.36
2023-01-17T08:41:27.368Z,77.22
2023-01-17T08:43:55.165Z,76.91
2023-01-17T08:46:25.194Z,76.44
2023-01-17T08:48:55.652Z,76.33
2023-01-17T08:51:25.065Z,75.66
2023-01-17T08:53:52.899Z,74.44
2023-01-17T08:56:21.288Z,73.61
2023-01-17T08:58:48.881Z,73.21
2023-01-17T09:01:17.266Z,72.13
2023-01-17T09:03:46.532Z,68.14
2023-01-17T09:06:17.123Z,66.41
2023-01-17T09:08:46.837Z,64.75
2023-01-17T09:11:17.385Z,64.46
2023-01-17T09:13:45.026Z,64.02
2023-01-17T09:16:12.864Z,63.70
2023-01-17T09:18:40.510Z,63.19
2023-01-17T09:21:14.296Z,63.03
2023-01-17T09:23:42.629Z,63.33
2023-01-17T09:26:19.041Z,64.07
2023-01-17T09:28:46.738Z,62.90
2023-01-17T09:31:17.284Z,61.24
2023-01-17T09:33:45.170Z,60.84
2023-01-17T09:36:14.397Z,60.45
2023-01-17T09:38:42.502Z,59.24
2023-01-17T09:41:23.097Z,60.28
2023-01-17T09:43:55.040Z,57.64
2023-01-17T09:46:27.773Z,56.25
2023-01-17T09:49:02.792Z,53.81
2023-01-17T09:51:33.167Z,52.46
2023-01-17T09:54:02.366Z,50.21
2023-01-17T09:56:36.460Z,49.67
2023-01-17T09:59:18.965Z,48.94
2023-01-17T10:01:58.035Z,49.50
2023-01-17T10:04:53.170Z,47.40
2023-01-17T10:07:34.840Z,48.20
2023-01-17T10:10:18.353Z,49.43
2023-01-17T10:12:55.966Z,50.75
2023-01-17T10:15:40.607Z,51.27
2023-01-17T10:18:31.150Z,53.29
2023-01-17T10:21:05.596Z,53.75
2023-01-17T10:23:56.231Z,54.74
2023-01-17T10:26:27.198Z,55.65
2023-01-17T10:29:01.659Z,55.83
2023-01-17T10:31:35.728Z,55.93
2023-01-17T10:34:12.871Z,54.85
2023-01-17T10:36:46.068Z,55.07
2023-01-17T10:39:20.272Z,54.60
2023-01-17T10:41:56.250Z,55.04
2023-01-17T10:44:29.873Z,55.20
2023-01-17T10:47:03.282Z,56.40
2023-01-17T10:49:31.656Z,57.45
2023-01-17T10:52:13.799Z,58.18
2023-01-17T10:54:54.565Z,59.09
2023-01-17T10:57:25.233Z,57.79
2023-01-17T10:59:53.609Z,57.55
2023-01-17T11:02:25.896Z,57.91
2023-01-17T11:04:55.681Z,57.64
2023-01-17T11:07:25.774Z,56.65
2023-01-17T11:09:56.315Z,56.16
2023-01-17T11:12:28.536Z,56.06
2023-01-17T11:15:02.556Z,55.59
2023-01-17T11:17:31.376Z,56.54
2023-01-17T11:20:15.100Z,57.99
2023-01-17T11:22:45.684Z,58.69
2023-01-17T11:25:22.982Z,59.12
2023-01-17T11:28:02.093Z,59.30
2023-01-17T11:30:30.340Z,59.18
2023-01-17T11:33:01.026Z,60.23
2023-01-17T11:35:31.129Z,59.83
2023-01-17T11:38:05.778Z,59.81
2023-01-17T11:40:42.199Z,59.31
2023-01-17T11:43:23.399Z,58.24
2023-01-17T11:46:03.675Z,58.57
2023-01-17T11:48:39.827Z,58.80
2023-01-17T11:51:20.049Z,59.42
2023-01-17T11:53:49.245Z,59.34
2023-01-17T11:56:29.008Z,59.66
2023-01-17T11:59:15.072Z,60.14
2023-01-17T12:01:47.997Z,59.30
2023-01-17T12:04:25.123Z,59.90
2023-01-17T12:07:08.513Z,59.62
2023-01-17T12:09:43.545Z,59.23
2023-01-17T12:12:39.181Z,59.28
2023-01-17T12:15:20.476Z,58.92
2023-01-17T12:18:02.221Z,60.17
2023-01-17T12:20:39.774Z,60.90
2023-01-17T12:23:28.025Z,60.34
2023-01-17T12:26:06.739Z,60.35
2023-01-17T12:29:20.208Z,60.08
2023-01-17T12:31:57.960Z,59.32
2023-01-17T12:34:31.441Z,59.21
2023-01-17T12:37:04.994Z,59.17
2023-01-17T12:39:38.126Z,59.44
2023-01-17T12:42:13.403Z,59.68
2023-01-17T12:44:51.834Z,60.35
2023-01-17T12:47:21.851Z,60.53
2023-01-17T12:49:57.366Z,59.12
2023-01-17T12:52:42.454Z,59.99
2023-01-17T12:55:18.299Z,60.54
2023-01-17T12:57:53.186Z,61.28
2023-01-17T13:00:25.512Z,61.75
2023-01-17T13:02:58.474Z,61.00
2023-01-17T13:05:31.736Z,60.71
2023-01-17T13:08:07.500Z,61.03
2023-01-17T13:10:39.790Z,61.55
2023-01-17T13:13:20.392Z,60.70
2023-01-17T13:15:50.711Z,61.32
2023-01-17T13:18:25.614Z,61.31
2023-01-17T13:21:06.066Z,61.26
2023-01-17T13:23:48.920Z,60.51
2023-01-17T13:26:25.363Z,60.77
2023-01-17T13:29:01.175Z,61.38
2023-01-17T13:31:38.720Z,62.04
2023-01-17T13:34:25.790Z,61.98
2023-01-17T13:37:18.377Z,60.69
2023-01-17T13:40:06.464Z,59.91
2023-01-17T13:42:46.911Z,60.57
2023-01-17T13:45:20.350Z,60.52
2023-01-17T13:47:49.599Z,61.22
2023-01-17T13:50:50.068Z,61.49
2023-01-17T13:53:57.426Z,62.11
2023-01-17T13:56:31.654Z,62.37
2023-01-17T13:59:19.625Z,62.83
2023-01-17T14:01:54.693Z,63.25
2023-01-17T14:04:24.921Z,62.16
2023-01-17T14:07:01.048Z,63.05
2023-01-17T14:09:41.475Z,62.86
2023-01-17T14:12:29.600Z,61.96
2023-01-17T14:14:57.973Z,63.39
2023-01-17T14:17:55.623Z,63.38
2023-01-17T14:21:09.288Z,63.08
2023-01-17T14:23:55.491Z,63.80
2023-01-17T14:26:50.034Z,63.78
2023-01-17T14:29:58.973Z,63.84
2023-01-17T14:32:31.371Z,64.24
2023-01-17T14:34:59.697Z,64.32
2023-01-17T14:37:46.617Z,64.92
2023-01-17T14:40:17.389Z,64.77
2023-01-17T14:42:46.453Z,65.05
2023-01-17T14:45:22.367Z,65.82
2023-01-17T14:47:51.447Z,65.14
2023-01-17T14:50:26.429Z,65.69
2023-01-17T14:53:15.331Z,65.95
2023-01-17T14:55:55.335Z,66.13
2023-01-17T14:58:25.411Z,66.26
2023-01-17T15:00:57.193Z,66.41
2023-01-17T15:03:25.087Z,66.79
2023-01-17T15:05:55.289Z,66.89
2023-01-17T15:08:27.110Z,66.18
2023-01-17T15:11:00.073Z,66.97
2023-01-17T15:13:43.740Z,67.07
2023-01-17T15:16:21.489Z,67.02
2023-01-17T15:18:50.244Z,67.10
2023-01-17T15:21:20.653Z,67.48
2023-01-17T15:23:51.294Z,68.11
2023-01-17T15:26:24.924Z,67.83
2023-01-17T15:28:53.194Z,67.26
2023-01-17T15:31:40.492Z,67.25
2023-01-17T15:34:10.416Z,67.54
2023-01-17T15:36:38.539Z,67.86
2023-01-17T15:39:15.795Z,68.08
2023-01-17T15:41:45.808Z,68.61
2023-01-17T15:44:31.154Z,69.17
2023-01-17T15:47:05.131Z,69.22
2023-01-17T15:49:32.907Z,69.50
2023-01-17T15:52:15.269Z,69.63
2023-01-17T15:54:47.468Z,69.36
2023-01-17T15:57:26.099Z,69.98
2023-01-17T15:59:56.908Z,70.03
2023-01-17T16:02:37.362Z,70.22
2023-01-17T16:05:35.205Z,70.15
2023-01-17T16:08:29.483Z,70.32
2023-01-17T16:11:01.880Z,70.73
2023-01-17T16:13:31.606Z,70.15
2023-01-17T16:16:18.568Z,70.46
2023-01-17T16:18:47.819Z,71.13
2023-01-17T16:21:23.648Z,71.46
2023-01-17T16:23:52.289Z,71.21
2023-01-17T16:26:20.770Z,70.86
2023-01-17T16:28:49.691Z,70.89
2023-01-17T16:31:18.253Z,70.66
2023-01-17T16:33:46.146Z,70.72
2023-01-17T16:36:16.540Z,71.08
2023-01-17T16:38:46.717Z,70.51
2023-01-17T16:41:14.332Z,70.19
2023-01-17T16:43:41.969Z,70.41
2023-01-17T16:46:12.349Z,70.55
2023-01-17T16:48:40.071Z,70.29
2023-01-17T16:51:09.047Z,70.01
2023-01-17T16:53:37.575Z,69.88
2023-01-17T16:56:13.879Z,70.34
2023-01-17T16:58:42.532Z,69.90
2023-01-17T17:01:11.603Z,69.64
2023-01-17T17:03:39.283Z,70.10
2023-01-17T17:06:07.578Z,69.34
2023-01-17T17:08:36.036Z,69.85
2023-01-17T17:11:17.165Z,70.06
2023-01-17T17:13:47.533Z,70.46
2023-01-17T17:16:18.677Z,69.97
2023-01-17T17:18:47.784Z,70.49
2023-01-17T17:21:15.597Z,70.46
2023-01-17T17:23:43.227Z,69.90
2023-01-17T17:26:12.600Z,69.88
2023-01-17T17:28:40.581Z,70.19
2023-01-17T17:31:11.307Z,70.20
2023-01-17T17:33:41.858Z,70.03
2023-01-17T17:36:11.374Z,70.10
2023-01-17T17:38:50.961Z,69.94
2023-01-17T17:41:22.299Z,69.91
2023-01-17T17:43:51.185Z,69.93
2023-01-17T17:46:20.649Z,70.35
2023-01-17T17:48:49.103Z,70.73
2023-01-17T17:51:26.177Z,70.52
2023-01-17T17:53:54.581Z,70.11
2023-01-17T17:56:25.359Z,70.42
2023-01-17T17:58:53.242Z,70.87
2023-01-17T18:01:22.793Z,70.46
2023-01-17T18:03:50.976Z,70.89
2023-01-17T18:06:19.312Z,71.12
2023-01-17T18:08:48.210Z,70.86
2023-01-17T18:11:18.728Z,70.67
2023-01-17T18:13:50.998Z,70.66
2023-01-17T18:16:20.860Z,71.03
2023-01-17T18:18:51.128Z,70.89
2023-01-17T18:21:23.673Z,70.92
2023-01-17T18:23:54.259Z,70.57
2023-01-17T18:26:24.290Z,71.02
2023-01-17T18:28:54.212Z,70.97
2023-01-17T18:31:23.956Z,71.36
2023-01-17T18:33:52.563Z,71.45
2023-01-17T18:36:21.611Z,71.73
2023-01-17T18:38:50.181Z,71.63
2023-01-17T18:41:19.948Z,72.00
2023-01-17T18:43:48.298Z,71.66
2023-01-17T18:46:18.939Z,72.32
2023-01-17T18:48:48.072Z,72.12
2023-01-17T18:51:17.774Z,72.24
2023-01-17T18:53:47.854Z,72.70
2023-01-17T18:56:18.455Z,73.01
2023-01-17T18:58:48.574Z,73.70
2023-01-17T19:01:19.357Z,73.42
2023-01-17T19:03:49.568Z,74.07
2023-01-17T19:06:19.980Z,74.45
2023-01-17T19:08:49.786Z,74.31
2023-01-17T19:11:17.393Z,74.37
2023-01-17T19:13:46.423Z,74.95
2023-01-17T19:16:15.871Z,74.56
2023-01-17T19:18:45.145Z,73.38
2023-01-17T19:21:14.488Z,73.67
2023-01-17T19:23:43.926Z,74.58
2023-01-17T19:26:12.498Z,74.77
2023-01-17T19:28:41.932Z,74.54
2023-01-17T19:31:10.960Z,75.37
2023-01-17T19:33:41.230Z,74.75
2023-01-17T19:36:13.429Z,75.20
2023-01-17T19:38:45.521Z,75.12
2023-01-17T19:41:20.147Z,76.25
2023-01-17T19:43:48.623Z,78.04
2023-01-17T19:46:20.362Z,77.36
2023-01-17T19:48:48.846Z,77.91
2023-01-17T19:51:18.108Z,76.81
2023-01-17T19:53:45.850Z,77.54
2023-01-17T19:56:15.552Z,76.90
2023-01-17T19:58:45.289Z,76.62
2023-01-17T20:01:15.368Z,76.74
2023-01-17T20:03:45.091Z,76.26
2023-01-17T20:06:14.726Z,77.16
2023-01-17T20:08:45.254Z,77.21
2023-01-17T20:11:14.853Z,77.38
2023-01-17T20:13:42.833Z,77.57
2023-01-17T20:16:13.649Z,77.48
2023-01-17T20:18:41.942Z,77.40
2023-01-17T20:21:12.211Z,76.71
2023-01-17T20:23:42.979Z,77.35
2023-01-17T20:26:13.059Z,77.53
2023-01-17T20:28:43.063Z,78.14
2023-01-17T20:31:13.201Z,77.91
2023-01-17T20:33:42.091Z,78.12
2023-01-17T20:36:12.897Z,77.26
2023-01-17T20:38:46.861Z,77.29
2023-01-17T20:41:17.988Z,77.85
2023-01-17T20:43:47.653Z,78.01
2023-01-17T20:46:16.066Z,77.62
2023-01-17T20:48:45.185Z,77.53
2023-01-17T20:51:13.491Z,78.01
2023-01-17T20:53:44.318Z,78.08
2023-01-17T20:56:14.967Z,78.71
2023-01-17T20:58:44.199Z,78.59
2023-01-17T21:01:13.832Z,78.75
2023-01-17T21:03:42.465Z,78.41
2023-01-17T21:06:13.638Z,79.56
2023-01-17T21:08:43.219Z,78.76
2023-01-17T21:11:13.142Z,79.36
2023-01-17T21:13:41.527Z,78.08
2023-01-17T21:16:14.209Z,78.15
2023-01-17T21:18:42.139Z,78.39
2023-01-17T21:21:13.311Z,78.24
2023-01-17T21:23:42.659Z,78.10
2023-01-17T21:26:13.025Z,77.48
2023-01-17T21:28:43.372Z,78.19
2023-01-17T21:31:20.360Z,77.86
2023-01-17T21:33:48.866Z,77.84
2023-01-17T21:36:17.235Z,78.16
2023-01-17T21:38:50.004Z,78.25
2023-01-17T21:41:17.599Z,77.46
2023-01-17T21:43:45.316Z,78.72
2023-01-17T21:46:14.463Z,78.62
2023-01-17T21:48:46.198Z,77.55
2023-01-17T21:51:14.235Z,78.75
2023-01-17T21:53:41.888Z,78.96
2023-01-17T21:56:31.511Z,80.45
2023-01-17T21:58:59.727Z,80.22
2023-01-17T22:01:31.682Z,80.55
2023-01-17T22:04:02.722Z,79.21
2023-01-17T22:06:33.452Z,79.39
2023-01-17T22:09:01.219Z,79.44
2023-01-17T22:11:30.590Z,78.88
2023-01-17T22:13:59.380Z,78.60
2023-01-17T22:16:29.274Z,78.45
2023-01-17T22:18:57.012Z,77.65
2023-01-17T22:21:28.454Z,77.88
2023-01-17T22:23:58.244Z,78.49
2023-01-17T22:26:28.797Z,77.94
2023-01-17T22:28:57.051Z,78.64
2023-01-17T22:31:27.214Z,77.79
2023-01-17T22:33:57.750Z,79.16
2023-01-17T22:36:26.163Z,78.71
2023-01-17T22:38:54.178Z,78.88
2023-01-17T22:41:24.563Z,78.92
2023-01-17T22:43:57.694Z,78.41
2023-01-17T22:46:28.813Z,78.95
2023-01-17T22:48:58.702Z,78.89
2023-01-17T22:51:28.418Z,78.73
2023-01-17T22:53:57.792Z,78.75
2023-01-17T22:56:27.948Z,78.99
2023-01-17T22:58:55.904Z,78.63
2023-01-17T23:01:26.023Z,78.36
2023-01-17T23:03:55.475Z,78.16
2023-01-17T23:06:27.199Z,78.66
2023-01-17T23:08:56.557Z,78.54
2023-01-17T23:11:46.663Z,78.64
2023-01-17T23:14:16.966Z,78.43
2023-01-17T23:17:06.063Z,78.28
2023-01-17T23:19:35.838Z,78.54
2023-01-17T23:22:16.603Z,78.30
2023-01-17T23:24:45.326Z,78.37
2023-01-17T23:27:33.136Z,78.19
2023-01-17T23:30:01.743Z,77.85
2023-01-17T23:32:29.812Z,78.61
2023-01-17T23:34:57.421Z,78.46
2023-01-17T23:37:47.657Z,79.41
2023-01-17T23:40:15.543Z,80.35
2023-01-17T23:43:01.603Z,81.08
2023-01-17T23:45:29.405Z,80.79
2023-01-17T23:47:57.878Z,80.78
2023-01-17T23:50:25.487Z,80.36
2023-01-17T23:52:55.148Z,81.64
2023-01-17T23:55:23.075Z,81.61
2023-01-17T23:57:51.990Z,81.67
